sensor_id;sensor_type;location;lat;lon;timestamp;P1;durP1;ratioP1;P2;durP2;ratioP2
59950;SDS011;45812;53.540;9.774;2023-02-15T00:01:25;32.88;;;15.70;;
59950;SDS011;45812;53.540;9.774;2023-02-15T00:03:50;36.58;;;15.52;;
59950;SDS011;45812;53.540;9.774;2023-02-15T00:06:16;43.03;;;16.08;;
59950;SDS011;45812;53.540;9.774;2023-02-15T00:08:41;40.10;;;16.17;;
59950;SDS011;45812;53.540;9.774;2023-02-15T00:11:10;38.75;;;15.48;;
59950;SDS011;45812;53.540;9.774;2023-02-15T00:13:40;38.72;;;15.40;;
59950;SDS011;45812;53.540;9.774;2023-02-15T00:16:10;38.05;;;15.75;;
59950;SDS011;45812;53.540;9.774;2023-02-15T00:18:37;38.15;;;15.93;;
59950;SDS011;45812;53.540;9.774;2023-02-15T00:21:04;43.40;;;17.30;;
59950;SDS011;45812;53.540;9.774;2023-02-15T00:23:33;39.13;;;15.70;;
59950;SDS011;45812;53.540;9.774;2023-02-15T00:26:09;41.28;;;16.05;;
59950;SDS011;45812;53.540;9.774;2023-02-15T00:28:36;30.98;;;13.93;;
59950;SDS011;45812;53.540;9.774;2023-02-15T00:31:08;35.00;;;14.82;;
59950;SDS011;45812;53.540;9.774;2023-02-15T00:36:01;30.70;;;13.63;;
59950;SDS011;45812;53.540;9.774;2023-02-15T00:38:30;32.85;;;14.88;;
59950;SDS011;45812;53.540;9.774;2023-02-15T00:40:57;30.52;;;13.82;;
59950;SDS011;45812;53.540;9.774;2023-02-15T00:43:24;30.05;;;13.52;;
59950;SDS011;45812;53.540;9.774;2023-02-15T00:45:50;37.00;;;14.18;;
59950;SDS011;45812;53.540;9.774;2023-02-15T00:48:15;34.35;;;13.98;;
59950;SDS011;45812;53.540;9.774;2023-02-15T00:50:41;28.42;;;13.25;;
59950;SDS011;45812;53.540;9.774;2023-02-15T00:53:06;38.83;;;14.30;;
59950;SDS011;45812;53.540;9.774;2023-02-15T00:55:32;31.23;;;14.40;;
59950;SDS011;45812;53.540;9.774;2023-02-15T00:57:57;33.90;;;14.60;;
59950;SDS011;45812;53.540;9.774;2023-02-15T01:00:22;32.95;;;14.65;;
59950;SDS011;45812;53.540;9.774;2023-02-15T01:02:47;34.10;;;14.57;;
59950;SDS011;45812;53.540;9.774;2023-02-15T01:05:13;39.50;;;13.75;;
59950;SDS011;45812;53.540;9.774;2023-02-15T01:07:38;33.63;;;14.80;;
59950;SDS011;45812;53.540;9.774;2023-02-15T01:10:04;35.90;;;15.25;;
59950;SDS011;45812;53.540;9.774;2023-02-15T01:12:31;42.55;;;15.23;;
59950;SDS011;45812;53.540;9.774;2023-02-15T01:14:56;42.30;;;15.43;;
59950;SDS011;45812;53.540;9.774;2023-02-15T01:17:21;42.05;;;14.25;;
59950;SDS011;45812;53.540;9.774;2023-02-15T01:19:47;38.72;;;15.13;;
59950;SDS011;45812;53.540;9.774;2023-02-15T01:22:12;33.95;;;14.50;;
59950;SDS011;45812;53.540;9.774;2023-02-15T01:24:37;34.55;;;15.15;;
59950;SDS011;45812;53.540;9.774;2023-02-15T01:27:02;39.67;;;15.65;;
59950;SDS011;45812;53.540;9.774;2023-02-15T01:29:28;46.60;;;14.93;;
59950;SDS011;45812;53.540;9.774;2023-02-15T01:31:53;38.53;;;14.23;;
59950;SDS011;45812;53.540;9.774;2023-02-15T01:34:18;42.05;;;15.27;;
59950;SDS011;45812;53.540;9.774;2023-02-15T01:36:43;36.13;;;14.57;;
59950;SDS011;45812;53.540;9.774;2023-02-15T01:39:09;78.47;;;14.95;;
59950;SDS011;45812;53.540;9.774;2023-02-15T01:41:35;47.53;;;15.35;;
59950;SDS011;45812;53.540;9.774;2023-02-15T01:44:01;36.42;;;14.70;;
59950;SDS011;45812;53.540;9.774;2023-02-15T01:46:33;74.00;;;17.23;;
59950;SDS011;45812;53.540;9.774;2023-02-15T01:49:05;41.58;;;15.07;;
59950;SDS011;45812;53.540;9.774;2023-02-15T01:51:36;70.30;;;16.30;;
59950;SDS011;45812;53.540;9.774;2023-02-15T01:54:05;59.85;;;16.67;;
59950;SDS011;45812;53.540;9.774;2023-02-15T01:56:39;40.22;;;14.85;;
59950;SDS011;45812;53.540;9.774;2023-02-15T01:59:08;40.03;;;14.98;;
59950;SDS011;45812;53.540;9.774;2023-02-15T02:01:37;55.38;;;16.42;;
59950;SDS011;45812;53.540;9.774;2023-02-15T02:04:11;83.75;;;16.27;;
59950;SDS011;45812;53.540;9.774;2023-02-15T02:06:42;31.48;;;12.60;;
59950;SDS011;45812;53.540;9.774;2023-02-15T02:09:11;48.20;;;14.15;;
59950;SDS011;45812;53.540;9.774;2023-02-15T02:11:37;41.15;;;14.25;;
59950;SDS011;45812;53.540;9.774;2023-02-15T02:14:03;60.33;;;14.52;;
59950;SDS011;45812;53.540;9.774;2023-02-15T02:16:34;95.30;;;17.35;;
59950;SDS011;45812;53.540;9.774;2023-02-15T02:27:18;79.85;;;17.15;;
59950;SDS011;45812;53.540;9.774;2023-02-15T02:38:00;44.22;;;14.32;;
59950;SDS011;45812;53.540;9.774;2023-02-15T02:43:25;42.17;;;15.20;;
59950;SDS011;45812;53.540;9.774;2023-02-15T02:46:00;44.70;;;14.70;;
59950;SDS011;45812;53.540;9.774;2023-02-15T02:48:30;72.50;;;15.00;;
59950;SDS011;45812;53.540;9.774;2023-02-15T02:50:57;53.08;;;14.80;;
59950;SDS011;45812;53.540;9.774;2023-02-15T02:53:23;54.53;;;15.25;;
59950;SDS011;45812;53.540;9.774;2023-02-15T02:55:53;49.90;;;14.35;;
59950;SDS011;45812;53.540;9.774;2023-02-15T02:58:24;46.92;;;13.35;;
59950;SDS011;45812;53.540;9.774;2023-02-15T03:01:00;46.90;;;14.73;;
59950;SDS011;45812;53.540;9.774;2023-02-15T03:03:41;54.65;;;15.52;;
59950;SDS011;45812;53.540;9.774;2023-02-15T03:06:12;60.28;;;15.15;;
59950;SDS011;45812;53.540;9.774;2023-02-15T03:08:46;63.55;;;14.48;;
59950;SDS011;45812;53.540;9.774;2023-02-15T03:11:18;50.28;;;13.25;;
59950;SDS011;45812;53.540;9.774;2023-02-15T03:13:44;51.40;;;14.65;;
59950;SDS011;45812;53.540;9.774;2023-02-15T03:16:12;74.20;;;15.50;;
59950;SDS011;45812;53.540;9.774;2023-02-15T03:18:55;125.53;;;16.85;;
59950;SDS011;45812;53.540;9.774;2023-02-15T03:21:34;49.17;;;14.20;;
59950;SDS011;45812;53.540;9.774;2023-02-15T03:24:23;91.07;;;14.07;;
59950;SDS011;45812;53.540;9.774;2023-02-15T03:26:51;44.63;;;14.85;;
59950;SDS011;45812;53.540;9.774;2023-02-15T03:29:20;57.00;;;13.88;;
59950;SDS011;45812;53.540;9.774;2023-02-15T03:31:49;49.78;;;13.98;;
59950;SDS011;45812;53.540;9.774;2023-02-15T03:34:21;64.60;;;15.55;;
59950;SDS011;45812;53.540;9.774;2023-02-15T03:36:50;81.60;;;15.10;;
59950;SDS011;45812;53.540;9.774;2023-02-15T03:39:36;72.13;;;14.63;;
59950;SDS011;45812;53.540;9.774;2023-02-15T03:44:42;57.72;;;14.13;;
59950;SDS011;45812;53.540;9.774;2023-02-15T03:47:17;69.25;;;15.77;;
59950;SDS011;45812;53.540;9.774;2023-02-15T03:49:48;62.72;;;15.27;;
59950;SDS011;45812;53.540;9.774;2023-02-15T03:52:18;58.10;;;14.65;;
59950;SDS011;45812;53.540;9.774;2023-02-15T03:54:46;36.05;;;14.07;;
59950;SDS011;45812;53.540;9.774;2023-02-15T03:57:30;54.13;;;15.52;;
59950;SDS011;45812;53.540;9.774;2023-02-15T04:05:30;40.13;;;14.30;;
59950;SDS011;45812;53.540;9.774;2023-02-15T04:07:55;47.72;;;15.13;;
59950;SDS011;45812;53.540;9.774;2023-02-15T04:10:21;57.05;;;15.63;;
59950;SDS011;45812;53.540;9.774;2023-02-15T04:13:05;37.67;;;12.57;;
59950;SDS011;45812;53.540;9.774;2023-02-15T04:15:30;44.70;;;14.35;;
59950;SDS011;45812;53.540;9.774;2023-02-15T04:18:14;57.75;;;15.05;;
59950;SDS011;45812;53.540;9.774;2023-02-15T04:20:42;37.03;;;13.68;;
59950;SDS011;45812;53.540;9.774;2023-02-15T04:23:27;42.58;;;13.48;;
59950;SDS011;45812;53.540;9.774;2023-02-15T04:26:11;65.82;;;14.23;;
59950;SDS011;45812;53.540;9.774;2023-02-15T04:28:37;56.42;;;12.98;;
59950;SDS011;45812;53.540;9.774;2023-02-15T04:31:02;55.95;;;13.68;;
59950;SDS011;45812;53.540;9.774;2023-02-15T04:33:28;80.32;;;16.17;;
59950;SDS011;45812;53.540;9.774;2023-02-15T04:35:53;64.07;;;14.57;;
59950;SDS011;45812;53.540;9.774;2023-02-15T04:38:18;85.78;;;15.27;;
59950;SDS011;45812;53.540;9.774;2023-02-15T04:40:43;96.65;;;15.20;;
59950;SDS011;45812;53.540;9.774;2023-02-15T04:43:09;126.28;;;15.95;;
59950;SDS011;45812;53.540;9.774;2023-02-15T04:45:34;80.55;;;14.73;;
59950;SDS011;45812;53.540;9.774;2023-02-15T04:47:59;92.80;;;15.45;;
59950;SDS011;45812;53.540;9.774;2023-02-15T04:50:24;65.03;;;11.45;;
59950;SDS011;45812;53.540;9.774;2023-02-15T04:52:50;110.68;;;14.38;;
59950;SDS011;45812;53.540;9.774;2023-02-15T04:55:15;133.63;;;14.05;;
59950;SDS011;45812;53.540;9.774;2023-02-15T04:57:40;88.57;;;12.93;;
59950;SDS011;45812;53.540;9.774;2023-02-15T05:00:06;88.82;;;13.73;;
59950;SDS011;45812;53.540;9.774;2023-02-15T05:02:33;79.72;;;12.52;;
59950;SDS011;45812;53.540;9.774;2023-02-15T05:04:58;29.40;;;10.77;;
59950;SDS011;45812;53.540;9.774;2023-02-15T05:07:23;58.38;;;12.35;;
59950;SDS011;45812;53.540;9.774;2023-02-15T05:09:49;139.48;;;15.35;;
59950;SDS011;45812;53.540;9.774;2023-02-15T05:12:14;100.40;;;13.60;;
59950;SDS011;45812;53.540;9.774;2023-02-15T05:14:39;43.08;;;11.30;;
59950;SDS011;45812;53.540;9.774;2023-02-15T05:17:05;36.53;;;11.52;;
59950;SDS011;45812;53.540;9.774;2023-02-15T05:19:30;62.88;;;13.25;;
59950;SDS011;45812;53.540;9.774;2023-02-15T05:21:55;62.58;;;12.35;;
59950;SDS011;45812;53.540;9.774;2023-02-15T05:24:21;25.40;;;9.32;;
59950;SDS011;45812;53.540;9.774;2023-02-15T05:27:05;92.55;;;13.00;;
59950;SDS011;45812;53.540;9.774;2023-02-15T05:29:49;87.55;;;12.80;;
59950;SDS011;45812;53.540;9.774;2023-02-15T05:32:15;65.18;;;11.52;;
59950;SDS011;45812;53.540;9.774;2023-02-15T05:34:40;82.72;;;12.32;;
59950;SDS011;45812;53.540;9.774;2023-02-15T05:37:05;53.53;;;10.40;;
59950;SDS011;45812;53.540;9.774;2023-02-15T05:39:32;80.97;;;12.77;;
59950;SDS011;45812;53.540;9.774;2023-02-15T05:42:00;43.25;;;10.93;;
59950;SDS011;45812;53.540;9.774;2023-02-15T05:44:25;66.43;;;11.18;;
59950;SDS011;45812;53.540;9.774;2023-02-15T05:46:51;45.42;;;10.57;;
59950;SDS011;45812;53.540;9.774;2023-02-15T05:49:16;45.63;;;9.52;;
59950;SDS011;45812;53.540;9.774;2023-02-15T05:51:41;53.90;;;10.00;;
59950;SDS011;45812;53.540;9.774;2023-02-15T05:54:06;75.55;;;11.32;;
59950;SDS011;45812;53.540;9.774;2023-02-15T05:56:32;58.35;;;11.15;;
59950;SDS011;45812;53.540;9.774;2023-02-15T05:58:57;39.70;;;10.40;;
59950;SDS011;45812;53.540;9.774;2023-02-15T06:01:22;76.88;;;12.55;;
59950;SDS011;45812;53.540;9.774;2023-02-15T06:03:48;119.55;;;11.60;;
59950;SDS011;45812;53.540;9.774;2023-02-15T06:06:13;100.63;;;11.90;;
59950;SDS011;45812;53.540;9.774;2023-02-15T06:08:39;108.38;;;13.85;;
59950;SDS011;45812;53.540;9.774;2023-02-15T06:11:05;108.22;;;12.10;;
59950;SDS011;45812;53.540;9.774;2023-02-15T06:13:31;101.30;;;15.13;;
59950;SDS011;45812;53.540;9.774;2023-02-15T06:15:58;117.03;;;13.85;;
59950;SDS011;45812;53.540;9.774;2023-02-15T06:18:23;144.85;;;15.02;;
59950;SDS011;45812;53.540;9.774;2023-02-15T06:20:49;107.28;;;12.43;;
59950;SDS011;45812;53.540;9.774;2023-02-15T06:23:14;41.33;;;10.07;;
59950;SDS011;45812;53.540;9.774;2023-02-15T06:25:40;80.88;;;10.32;;
59950;SDS011;45812;53.540;9.774;2023-02-15T06:28:05;61.30;;;10.07;;
59950;SDS011;45812;53.540;9.774;2023-02-15T06:30:30;20.52;;;7.53;;
59950;SDS011;45812;53.540;9.774;2023-02-15T06:32:56;49.30;;;8.73;;
59950;SDS011;45812;53.540;9.774;2023-02-15T06:35:21;69.15;;;10.90;;
59950;SDS011;45812;53.540;9.774;2023-02-15T06:37:47;51.42;;;9.90;;
59950;SDS011;45812;53.540;9.774;2023-02-15T06:40:12;52.53;;;9.98;;
59950;SDS011;45812;53.540;9.774;2023-02-15T06:42:37;106.38;;;11.48;;
59950;SDS011;45812;53.540;9.774;2023-02-15T06:45:03;59.42;;;10.13;;
59950;SDS011;45812;53.540;9.774;2023-02-15T06:47:29;52.60;;;10.23;;
59950;SDS011;45812;53.540;9.774;2023-02-15T06:49:54;111.60;;;12.82;;
59950;SDS011;45812;53.540;9.774;2023-02-15T06:52:19;74.97;;;10.48;;
59950;SDS011;45812;53.540;9.774;2023-02-15T06:54:45;87.63;;;11.35;;
59950;SDS011;45812;53.540;9.774;2023-02-15T06:57:10;84.03;;;11.63;;
59950;SDS011;45812;53.540;9.774;2023-02-15T06:59:35;59.67;;;10.82;;
59950;SDS011;45812;53.540;9.774;2023-02-15T07:02:00;80.07;;;12.38;;
59950;SDS011;45812;53.540;9.774;2023-02-15T07:04:26;119.65;;;12.75;;
59950;SDS011;45812;53.540;9.774;2023-02-15T07:06:53;57.63;;;11.30;;
59950;SDS011;45812;53.540;9.774;2023-02-15T07:09:18;78.13;;;12.40;;
59950;SDS011;45812;53.540;9.774;2023-02-15T07:11:44;88.93;;;13.10;;
59950;SDS011;45812;53.540;9.774;2023-02-15T07:14:27;49.28;;;11.35;;
59950;SDS011;45812;53.540;9.774;2023-02-15T07:16:53;100.03;;;12.68;;
59950;SDS011;45812;53.540;9.774;2023-02-15T07:19:18;125.45;;;13.75;;
59950;SDS011;45812;53.540;9.774;2023-02-15T07:21:43;98.75;;;12.82;;
59950;SDS011;45812;53.540;9.774;2023-02-15T07:24:10;67.70;;;11.00;;
59950;SDS011;45812;53.540;9.774;2023-02-15T07:26:35;65.53;;;11.55;;
59950;SDS011;45812;53.540;9.774;2023-02-15T07:29:00;70.75;;;12.48;;
59950;SDS011;45812;53.540;9.774;2023-02-15T07:31:26;60.00;;;10.48;;
59950;SDS011;45812;53.540;9.774;2023-02-15T07:33:51;56.75;;;10.43;;
59950;SDS011;45812;53.540;9.774;2023-02-15T07:36:16;39.08;;;9.60;;
59950;SDS011;45812;53.540;9.774;2023-02-15T07:38:41;56.60;;;8.73;;
59950;SDS011;45812;53.540;9.774;2023-02-15T07:41:11;32.67;;;9.30;;
59950;SDS011;45812;53.540;9.774;2023-02-15T07:43:39;63.95;;;12.32;;
59950;SDS011;45812;53.540;9.774;2023-02-15T07:46:07;84.45;;;11.55;;
59950;SDS011;45812;53.540;9.774;2023-02-15T07:48:36;30.58;;;8.32;;
59950;SDS011;45812;53.540;9.774;2023-02-15T07:51:02;47.85;;;9.23;;
59950;SDS011;45812;53.540;9.774;2023-02-15T07:53:29;83.88;;;11.63;;
59950;SDS011;45812;53.540;9.774;2023-02-15T07:55:59;75.03;;;10.60;;
59950;SDS011;45812;53.540;9.774;2023-02-15T07:58:25;51.03;;;10.35;;
59950;SDS011;45812;53.540;9.774;2023-02-15T08:01:10;84.22;;;10.82;;
59950;SDS011;45812;53.540;9.774;2023-02-15T08:03:36;94.88;;;10.55;;
59950;SDS011;45812;53.540;9.774;2023-02-15T08:06:01;74.72;;;10.80;;
59950;SDS011;45812;53.540;9.774;2023-02-15T08:08:26;38.15;;;9.93;;
59950;SDS011;45812;53.540;9.774;2023-02-15T08:10:59;60.83;;;9.32;;
59950;SDS011;45812;53.540;9.774;2023-02-15T08:13:46;69.47;;;9.85;;
59950;SDS011;45812;53.540;9.774;2023-02-15T08:16:21;77.55;;;10.95;;
59950;SDS011;45812;53.540;9.774;2023-02-15T08:18:51;73.47;;;13.45;;
59950;SDS011;45812;53.540;9.774;2023-02-15T08:21:17;85.40;;;11.18;;
59950;SDS011;45812;53.540;9.774;2023-02-15T08:23:43;56.60;;;10.50;;
59950;SDS011;45812;53.540;9.774;2023-02-15T08:26:08;25.27;;;9.50;;
59950;SDS011;45812;53.540;9.774;2023-02-15T08:28:33;91.35;;;11.80;;
59950;SDS011;45812;53.540;9.774;2023-02-15T08:31:08;58.28;;;12.02;;
59950;SDS011;45812;53.540;9.774;2023-02-15T08:33:36;58.67;;;11.48;;
59950;SDS011;45812;53.540;9.774;2023-02-15T08:36:06;34.38;;;9.63;;
59950;SDS011;45812;53.540;9.774;2023-02-15T08:38:34;50.47;;;11.20;;
59950;SDS011;45812;53.540;9.774;2023-02-15T08:41:10;41.13;;;10.80;;
59950;SDS011;45812;53.540;9.774;2023-02-15T08:43:50;63.45;;;10.98;;
59950;SDS011;45812;53.540;9.774;2023-02-15T08:46:18;50.00;;;11.20;;
59950;SDS011;45812;53.540;9.774;2023-02-15T08:48:44;33.83;;;10.00;;
59950;SDS011;45812;53.540;9.774;2023-02-15T08:51:11;78.20;;;12.70;;
59950;SDS011;45812;53.540;9.774;2023-02-15T08:53:41;45.42;;;10.88;;
59950;SDS011;45812;53.540;9.774;2023-02-15T08:56:10;38.38;;;11.85;;
59950;SDS011;45812;53.540;9.774;2023-02-15T08:58:36;47.50;;;13.43;;
59950;SDS011;45812;53.540;9.774;2023-02-15T09:01:08;42.42;;;12.30;;
59950;SDS011;45812;53.540;9.774;2023-02-15T09:03:34;57.25;;;12.10;;
59950;SDS011;45812;53.540;9.774;2023-02-15T09:06:00;31.15;;;10.40;;
59950;SDS011;45812;53.540;9.774;2023-02-15T09:08:26;23.60;;;9.15;;
59950;SDS011;45812;53.540;9.774;2023-02-15T09:10:52;39.00;;;10.20;;
59950;SDS011;45812;53.540;9.774;2023-02-15T09:13:17;23.48;;;10.35;;
59950;SDS011;45812;53.540;9.774;2023-02-15T09:15:42;26.33;;;8.60;;
59950;SDS011;45812;53.540;9.774;2023-02-15T09:18:08;40.08;;;9.65;;
59950;SDS011;45812;53.540;9.774;2023-02-15T09:20:36;40.05;;;9.90;;
59950;SDS011;45812;53.540;9.774;2023-02-15T09:23:01;26.23;;;9.73;;
59950;SDS011;45812;53.540;9.774;2023-02-15T09:25:27;25.67;;;9.70;;
59950;SDS011;45812;53.540;9.774;2023-02-15T09:27:52;21.95;;;10.05;;
59950;SDS011;45812;53.540;9.774;2023-02-15T09:30:17;22.70;;;9.82;;
59950;SDS011;45812;53.540;9.774;2023-02-15T09:32:43;29.40;;;11.25;;
59950;SDS011;45812;53.540;9.774;2023-02-15T09:35:09;38.88;;;9.80;;
59950;SDS011;45812;53.540;9.774;2023-02-15T09:37:34;25.33;;;10.40;;
59950;SDS011;45812;53.540;9.774;2023-02-15T09:39:59;40.85;;;10.63;;
59950;SDS011;45812;53.540;9.774;2023-02-15T09:42:32;22.13;;;10.60;;
59950;SDS011;45812;53.540;9.774;2023-02-15T09:45:23;24.83;;;10.82;;
59950;SDS011;45812;53.540;9.774;2023-02-15T09:56:31;30.05;;;10.52;;
59950;SDS011;45812;53.540;9.774;2023-02-15T10:01:44;22.20;;;10.00;;
59950;SDS011;45812;53.540;9.774;2023-02-15T10:07:36;25.27;;;11.35;;
59950;SDS011;45812;53.540;9.774;2023-02-15T10:12:48;24.00;;;11.32;;
59950;SDS011;45812;53.540;9.774;2023-02-15T10:15:19;24.80;;;11.73;;
59950;SDS011;45812;53.540;9.774;2023-02-15T10:20:27;23.02;;;10.75;;
59950;SDS011;45812;53.540;9.774;2023-02-15T10:23:21;19.70;;;10.15;;
59950;SDS011;45812;53.540;9.774;2023-02-15T10:31:19;23.35;;;10.02;;
59950;SDS011;45812;53.540;9.774;2023-02-15T10:33:52;22.60;;;9.98;;
59950;SDS011;45812;53.540;9.774;2023-02-15T10:36:39;21.52;;;10.48;;
59950;SDS011;45812;53.540;9.774;2023-02-15T10:45:29;21.35;;;10.93;;
59950;SDS011;45812;53.540;9.774;2023-02-15T10:48:12;23.25;;;10.35;;
59950;SDS011;45812;53.540;9.774;2023-02-15T10:50:59;18.80;;;9.25;;
59950;SDS011;45812;53.540;9.774;2023-02-15T10:56:19;22.27;;;9.65;;
59950;SDS011;45812;53.540;9.774;2023-02-15T10:59:04;22.35;;;10.52;;
59950;SDS011;45812;53.540;9.774;2023-02-15T11:02:08;21.60;;;10.85;;
59950;SDS011;45812;53.540;9.774;2023-02-15T11:07:24;22.35;;;10.77;;
59950;SDS011;45812;53.540;9.774;2023-02-15T11:12:26;21.92;;;10.88;;
59950;SDS011;45812;53.540;9.774;2023-02-15T11:14:58;23.20;;;10.77;;
59950;SDS011;45812;53.540;9.774;2023-02-15T11:17:30;20.58;;;10.23;;
59950;SDS011;45812;53.540;9.774;2023-02-15T11:22:41;23.38;;;12.15;;
59950;SDS011;45812;53.540;9.774;2023-02-15T11:27:55;24.83;;;12.02;;
59950;SDS011;45812;53.540;9.774;2023-02-15T11:30:22;23.90;;;10.85;;
59950;SDS011;45812;53.540;9.774;2023-02-15T11:32:53;24.67;;;12.43;;
59950;SDS011;45812;53.540;9.774;2023-02-15T11:35:32;23.83;;;12.30;;
59950;SDS011;45812;53.540;9.774;2023-02-15T11:38:05;24.63;;;12.25;;
59950;SDS011;45812;53.540;9.774;2023-02-15T11:40:46;25.45;;;12.70;;
59950;SDS011;45812;53.540;9.774;2023-02-15T11:43:16;24.65;;;12.32;;
59950;SDS011;45812;53.540;9.774;2023-02-15T11:45:46;25.02;;;12.45;;
59950;SDS011;45812;53.540;9.774;2023-02-15T11:48:12;23.98;;;12.18;;
59950;SDS011;45812;53.540;9.774;2023-02-15T11:50:40;23.85;;;11.55;;
59950;SDS011;45812;53.540;9.774;2023-02-15T11:53:09;28.02;;;13.35;;
59950;SDS011;45812;53.540;9.774;2023-02-15T11:55:38;24.33;;;12.73;;
59950;SDS011;45812;53.540;9.774;2023-02-15T11:58:05;25.15;;;12.77;;
59950;SDS011;45812;53.540;9.774;2023-02-15T12:00:54;23.50;;;12.20;;
59950;SDS011;45812;53.540;9.774;2023-02-15T12:06:16;20.05;;;11.18;;
59950;SDS011;45812;53.540;9.774;2023-02-15T12:08:48;21.17;;;11.40;;
59950;SDS011;45812;53.540;9.774;2023-02-15T12:11:26;21.80;;;11.65;;
59950;SDS011;45812;53.540;9.774;2023-02-15T12:14:01;22.83;;;12.07;;
59950;SDS011;45812;53.540;9.774;2023-02-15T12:16:31;22.05;;;11.77;;
59950;SDS011;45812;53.540;9.774;2023-02-15T12:19:04;18.67;;;10.75;;
59950;SDS011;45812;53.540;9.774;2023-02-15T12:21:31;19.73;;;11.43;;
59950;SDS011;45812;53.540;9.774;2023-02-15T12:24:03;21.35;;;12.25;;
59950;SDS011;45812;53.540;9.774;2023-02-15T12:26:41;19.65;;;11.50;;
59950;SDS011;45812;53.540;9.774;2023-02-15T12:29:15;19.42;;;11.77;;
59950;SDS011;45812;53.540;9.774;2023-02-15T12:31:44;20.90;;;11.27;;
59950;SDS011;45812;53.540;9.774;2023-02-15T12:34:33;21.05;;;12.15;;
59950;SDS011;45812;53.540;9.774;2023-02-15T12:37:02;21.60;;;11.85;;
59950;SDS011;45812;53.540;9.774;2023-02-15T12:39:36;19.00;;;11.75;;
59950;SDS011;45812;53.540;9.774;2023-02-15T12:42:08;20.33;;;11.83;;
59950;SDS011;45812;53.540;9.774;2023-02-15T12:44:40;19.38;;;11.70;;
59950;SDS011;45812;53.540;9.774;2023-02-15T12:47:22;20.55;;;12.73;;
59950;SDS011;45812;53.540;9.774;2023-02-15T12:50:11;20.25;;;12.75;;
59950;SDS011;45812;53.540;9.774;2023-02-15T12:52:43;19.00;;;11.65;;
59950;SDS011;45812;53.540;9.774;2023-02-15T12:55:20;19.50;;;12.55;;
59950;SDS011;45812;53.540;9.774;2023-02-15T12:57:49;22.08;;;12.45;;
59950;SDS011;45812;53.540;9.774;2023-02-15T13:00:29;18.50;;;11.25;;
59950;SDS011;45812;53.540;9.774;2023-02-15T13:02:56;20.77;;;11.88;;
59950;SDS011;45812;53.540;9.774;2023-02-15T13:05:29;19.85;;;12.02;;
59950;SDS011;45812;53.540;9.774;2023-02-15T13:07:58;19.52;;;11.65;;
59950;SDS011;45812;53.540;9.774;2023-02-15T13:10:31;18.38;;;10.75;;
59950;SDS011;45812;53.540;9.774;2023-02-15T13:13:00;19.10;;;10.73;;
59950;SDS011;45812;53.540;9.774;2023-02-15T13:15:32;17.80;;;10.88;;
59950;SDS011;45812;53.540;9.774;2023-02-15T13:18:00;22.15;;;11.98;;
59950;SDS011;45812;53.540;9.774;2023-02-15T13:20:29;18.77;;;11.20;;
59950;SDS011;45812;53.540;9.774;2023-02-15T13:23:05;18.38;;;11.02;;
59950;SDS011;45812;53.540;9.774;2023-02-15T13:25:41;18.55;;;11.77;;
59950;SDS011;45812;53.540;9.774;2023-02-15T13:28:12;17.90;;;11.35;;
59950;SDS011;45812;53.540;9.774;2023-02-15T13:30:45;18.73;;;11.77;;
59950;SDS011;45812;53.540;9.774;2023-02-15T13:33:15;17.27;;;11.07;;
59950;SDS011;45812;53.540;9.774;2023-02-15T13:35:48;17.88;;;11.55;;
59950;SDS011;45812;53.540;9.774;2023-02-15T13:38:40;18.42;;;11.52;;
59950;SDS011;45812;53.540;9.774;2023-02-15T13:41:15;20.50;;;12.43;;
59950;SDS011;45812;53.540;9.774;2023-02-15T13:52:23;22.55;;;12.30;;
59950;SDS011;45812;53.540;9.774;2023-02-15T13:55:12;20.42;;;12.10;;
59950;SDS011;45812;53.540;9.774;2023-02-15T14:01:02;24.20;;;12.98;;
59950;SDS011;45812;53.540;9.774;2023-02-15T14:06:20;23.75;;;13.65;;
59950;SDS011;45812;53.540;9.774;2023-02-15T14:12:08;25.75;;;15.52;;
59950;SDS011;45812;53.540;9.774;2023-02-15T14:14:52;28.45;;;16.50;;
59950;SDS011;45812;53.540;9.774;2023-02-15T14:17:45;29.63;;;18.17;;
59950;SDS011;45812;53.540;9.774;2023-02-15T14:23:11;26.90;;;17.48;;
59950;SDS011;45812;53.540;9.774;2023-02-15T14:26:02;32.10;;;17.08;;
59950;SDS011;45812;53.540;9.774;2023-02-15T14:28:42;28.80;;;16.88;;
59950;SDS011;45812;53.540;9.774;2023-02-15T14:31:15;28.95;;;16.58;;
59950;SDS011;45812;53.540;9.774;2023-02-15T14:33:42;27.13;;;16.42;;
59950;SDS011;45812;53.540;9.774;2023-02-15T14:36:18;28.92;;;16.85;;
59950;SDS011;45812;53.540;9.774;2023-02-15T14:38:56;28.63;;;17.23;;
59950;SDS011;45812;53.540;9.774;2023-02-15T14:42:04;27.88;;;16.98;;
59950;SDS011;45812;53.540;9.774;2023-02-15T14:44:42;30.38;;;17.92;;
59950;SDS011;45812;53.540;9.774;2023-02-15T14:49:51;27.70;;;16.85;;
59950;SDS011;45812;53.540;9.774;2023-02-15T14:52:17;29.65;;;18.20;;
59950;SDS011;45812;53.540;9.774;2023-02-15T15:00:28;29.45;;;16.10;;
59950;SDS011;45812;53.540;9.774;2023-02-15T15:02:38;32.67;;;16.73;;
59950;SDS011;45812;53.540;9.774;2023-02-15T15:05:08;28.95;;;16.63;;
59950;SDS011;45812;53.540;9.774;2023-02-15T15:07:42;27.15;;;15.25;;
59950;SDS011;45812;53.540;9.774;2023-02-15T15:15:46;28.13;;;15.43;;
59950;SDS011;45812;53.540;9.774;2023-02-15T15:18:42;30.15;;;15.77;;
59950;SDS011;45812;53.540;9.774;2023-02-15T15:21:51;28.98;;;15.32;;
59950;SDS011;45812;53.540;9.774;2023-02-15T15:30:46;28.98;;;14.45;;
59950;SDS011;45812;53.540;9.774;2023-02-15T15:49:38;24.40;;;13.93;;
59950;SDS011;45812;53.540;9.774;2023-02-15T15:52:16;26.33;;;13.10;;
59950;SDS011;45812;53.540;9.774;2023-02-15T15:54:44;27.42;;;15.45;;
59950;SDS011;45812;53.540;9.774;2023-02-15T15:57:30;27.60;;;15.40;;
59950;SDS011;45812;53.540;9.774;2023-02-15T15:59:58;27.70;;;14.43;;
59950;SDS011;45812;53.540;9.774;2023-02-15T16:02:24;26.27;;;13.95;;
59950;SDS011;45812;53.540;9.774;2023-02-15T16:04:49;29.35;;;14.02;;
59950;SDS011;45812;53.540;9.774;2023-02-15T16:09:59;24.75;;;13.55;;
59950;SDS011;45812;53.540;9.774;2023-02-15T16:12:28;27.10;;;14.32;;
59950;SDS011;45812;53.540;9.774;2023-02-15T16:14:56;29.20;;;16.45;;
59950;SDS011;45812;53.540;9.774;2023-02-15T16:17:26;30.33;;;16.27;;
59950;SDS011;45812;53.540;9.774;2023-02-15T16:20:06;28.77;;;14.57;;
59950;SDS011;45812;53.540;9.774;2023-02-15T16:22:40;29.75;;;14.48;;
59950;SDS011;45812;53.540;9.774;2023-02-15T16:25:12;27.67;;;14.80;;
59950;SDS011;45812;53.540;9.774;2023-02-15T16:27:45;25.20;;;12.93;;
59950;SDS011;45812;53.540;9.774;2023-02-15T16:30:24;25.05;;;12.68;;
59950;SDS011;45812;53.540;9.774;2023-02-15T16:32:54;23.98;;;11.55;;
59950;SDS011;45812;53.540;9.774;2023-02-15T16:35:29;27.73;;;12.82;;
59950;SDS011;45812;53.540;9.774;2023-02-15T16:37:54;25.08;;;12.27;;
59950;SDS011;45812;53.540;9.774;2023-02-15T16:42:47;27.95;;;12.75;;
59950;SDS011;45812;53.540;9.774;2023-02-15T16:45:14;28.65;;;12.75;;
59950;SDS011;45812;53.540;9.774;2023-02-15T16:47:45;26.92;;;13.50;;
59950;SDS011;45812;53.540;9.774;2023-02-15T16:50:20;26.42;;;12.75;;
59950;SDS011;45812;53.540;9.774;2023-02-15T16:52:49;25.77;;;12.20;;
59950;SDS011;45812;53.540;9.774;2023-02-15T16:55:26;25.55;;;13.32;;
59950;SDS011;45812;53.540;9.774;2023-02-15T16:57:54;26.65;;;12.82;;
59950;SDS011;45812;53.540;9.774;2023-02-15T17:00:25;28.80;;;14.38;;